createdAt,value
2022-09-13T00:04:05.783Z,10.6
2022-09-13T00:09:43.946Z,10.7
2022-09-13T00:15:21.930Z,10.7
2022-09-13T00:20:44.065Z,10.8
2022-09-13T00:26:21.226Z,10.8
2022-09-13T00:31:59.044Z,10.8
2022-09-13T00:37:20.492Z,10.9
2022-09-13T00:42:58.913Z,11
2022-09-13T00:48:35.732Z,11.1
2022-09-13T00:54:14.972Z,11.2
2022-09-13T00:59:52.826Z,11.3
2022-09-13T01:05:30.106Z,11.3
2022-09-13T01:11:06.376Z,11.3
2022-09-13T01:16:47.690Z,11.3
2022-09-13T01:22:25.398Z,11.4
2022-09-13T01:28:02.342Z,11.4
2022-09-13T01:33:25.493Z,11.4
2022-09-13T01:39:02.156Z,11.4
2022-09-13T01:44:38.959Z,11.3
2022-09-13T01:50:02.994Z,11.3
2022-09-13T01:55:40.756Z,11.1
2022-09-13T02:01:17.600Z,11.1
2022-09-13T02:06:40.919Z,10.9
2022-09-13T02:12:18.153Z,10.8
2022-09-13T02:17:55.929Z,10.6
2022-09-13T02:23:34.145Z,10.5
2022-09-13T02:29:12.177Z,10.3
2022-09-13T02:34:49.221Z,10
2022-09-13T02:40:11.263Z,9.8
2022-09-13T02:45:52.479Z,9.5
2022-09-13T02:51:29.411Z,9.3
2022-09-13T02:57:07.148Z,9.1
2022-09-13T03:02:45.714Z,9.1
2022-09-13T03:08:22.144Z,9
2022-09-13T03:13:59.762Z,9
2022-09-13T03:19:37.347Z,9.1
2022-09-13T03:24:57.489Z,9.2
2022-09-13T03:30:35.127Z,9.3
2022-09-13T03:36:12.514Z,9.3
2022-09-13T03:41:50.341Z,9.4
2022-09-13T03:46:57.296Z,9.3
2022-09-13T03:52:20.159Z,9.3
2022-09-13T03:57:57.494Z,9.3
2022-09-13T04:03:34.768Z,9.4
2022-09-13T04:09:17.036Z,9.4
2022-09-13T04:14:40.910Z,9.4
2022-09-13T04:20:19.187Z,9.4
2022-09-13T04:25:57.063Z,9.5
2022-09-13T04:31:34.208Z,9.6
2022-09-13T04:37:12.371Z,9.7
2022-09-13T04:42:50.544Z,9.8
2022-09-13T04:48:27.258Z,10.1
2022-09-13T04:54:05.177Z,11.4
2022-09-13T04:59:42.483Z,13.4
2022-09-13T05:05:23.627Z,15.6
2022-09-13T05:11:00.460Z,17.9
2022-09-13T05:16:38.852Z,20.6
2022-09-13T05:22:16.202Z,23.5
2022-09-13T05:27:58.133Z,26.9
2022-09-13T05:33:36.387Z,29.3
2022-09-13T05:40:07.688Z,30.1
2022-09-13T05:45:57.835Z,30.3
2022-09-13T05:52:25.449Z,32.3
2022-09-13T05:57:47.501Z,36.3
2022-09-13T06:03:25.765Z,40.4
2022-09-13T06:09:04.257Z,43.6
2022-09-13T06:14:41.546Z,31.9
2022-09-13T06:20:20.180Z,33.7
2022-09-13T06:26:01.608Z,39.5
2022-09-13T06:31:42.707Z,45.1
2022-09-13T06:37:07.319Z,42.5
2022-09-13T06:42:45.745Z,43.9
2022-09-13T06:48:27.022Z,44.4
2022-09-13T06:54:04.797Z,45.8
2022-09-13T06:59:28.866Z,46.1
2022-09-13T07:05:12.022Z,46.9
2022-09-13T07:10:38.886Z,47.7
2022-09-13T07:16:03.311Z,48.3
2022-09-13T07:21:44.947Z,48.4
2022-09-13T07:27:11.564Z,48.6
2022-09-13T07:32:52.196Z,49.8
2022-09-13T07:38:30.274Z,50.9
2022-09-13T07:43:56.411Z,51.9
2022-09-13T07:49:35.218Z,52.3
2022-09-13T07:55:12.342Z,52.8
2022-09-13T08:00:54.552Z,54.4
2022-09-13T08:06:22.548Z,55.4
2022-09-13T08:11:46.253Z,48
2022-09-13T08:17:24.026Z,50.2
2022-09-13T08:23:02.542Z,50.6
2022-09-13T08:28:44.134Z,58.1
2022-09-13T08:33:51.204Z,59.3
2022-09-13T08:39:13.182Z,60
2022-09-13T08:44:36.598Z,61.4
2022-09-13T08:50:14.860Z,56.7
2022-09-13T08:55:53.057Z,48.9
2022-09-13T09:01:33.361Z,52.1
2022-09-13T09:06:58.007Z,55.6
2022-09-13T09:12:05.572Z,54.3
2022-09-13T09:17:44.182Z,55.7
2022-09-13T09:28:44.761Z,47.6
2022-09-13T09:34:28.309Z,46.6
2022-09-13T09:40:06.355Z,49.7
2022-09-13T09:45:44.745Z,71.1
2022-09-13T09:51:28.284Z,63.5
2022-09-13T09:57:06.298Z,64.2
2022-09-13T10:02:44.901Z,64.9
2022-09-13T10:08:27.571Z,65.4
2022-09-13T10:14:06.338Z,66.1
2022-09-13T10:20:09.010Z,66
2022-09-13T10:25:48.043Z,66.3
2022-09-13T10:31:13.813Z,66.7
2022-09-13T10:37:15.276Z,66.9
2022-09-13T10:42:53.173Z,67.4
2022-09-13T10:48:30.361Z,58.4
2022-09-13T10:54:11.648Z,70.6
2022-09-13T10:59:49.537Z,68.1
2022-09-13T11:05:28.400Z,56.1
2022-09-13T11:11:06.036Z,53
2022-09-13T11:16:43.900Z,54.9
2022-09-13T11:22:22.167Z,63.1
2022-09-13T11:28:03.492Z,60.4
2022-09-13T11:33:41.160Z,67.9
2022-09-13T11:39:19.256Z,71.6
2022-09-13T11:44:42.344Z,59.3
2022-09-13T11:50:26.371Z,53.9
2022-09-13T11:56:06.380Z,56.8
2022-09-13T12:01:33.371Z,64.1
2022-09-13T12:07:36.389Z,63.2
2022-09-13T12:13:17.454Z,65.7
2022-09-13T12:18:40.061Z,68.6
2022-09-13T12:24:02.157Z,55.6
2022-09-13T12:29:41.884Z,54.4
2022-09-13T12:35:20.106Z,58.2
2022-09-13T12:40:58.135Z,65.1
2022-09-13T12:46:35.956Z,68.8
2022-09-13T12:52:49.646Z,52.6
2022-09-13T12:58:42.992Z,51.8
2022-09-13T13:04:23.410Z,58.3
2022-09-13T13:10:03.190Z,61.9
2022-09-13T13:15:41.068Z,63
2022-09-13T13:21:21.960Z,59.7
2022-09-13T13:26:59.767Z,56.3
2022-09-13T13:32:38.368Z,58
2022-09-13T13:38:16.145Z,58.4
2022-09-13T13:43:54.754Z,58.8
2022-09-13T13:49:33.296Z,59.4
2022-09-13T13:55:11.771Z,59.6
2022-09-13T14:00:52.645Z,58.8
2022-09-13T14:06:30.795Z,57.6
2022-09-13T14:12:25.608Z,56.1
2022-09-13T14:17:49.671Z,54.8
2022-09-13T14:23:12.020Z,53.3
2022-09-13T14:33:53.312Z,50.1
2022-09-13T14:39:16.031Z,48.5
2022-09-13T14:45:00.367Z,46.6
2022-09-13T14:50:23.514Z,44.8
2022-09-13T14:56:01.250Z,43.1
2022-09-13T15:01:39.775Z,41.3
2022-09-13T15:07:24.343Z,39.6
2022-09-13T15:13:03.482Z,38
2022-09-13T15:18:41.822Z,36.5
2022-09-13T15:24:20.183Z,35.1
2022-09-13T15:29:58.200Z,33.6
2022-09-13T15:35:36.158Z,32.4
2022-09-13T15:41:13.878Z,31.3
2022-09-13T15:46:52.346Z,30
2022-09-13T15:52:30.539Z,28.9
2022-09-13T15:57:52.827Z,27.9
2022-09-13T16:03:16.460Z,26.9
2022-09-13T16:08:43.106Z,25.8
2022-09-13T16:14:21.207Z,24.8
2022-09-13T16:19:59.851Z,23.9
2022-09-13T16:25:38.819Z,23.1
2022-09-13T16:31:16.967Z,22.5
2022-09-13T16:36:55.640Z,21.9
2022-09-13T16:42:34.235Z,21.2
2022-09-13T16:48:12.466Z,20.6
2022-09-13T16:53:49.737Z,20.1
2022-09-13T16:58:59.875Z,19.6
2022-09-13T17:04:11.163Z,19.2
2022-09-13T17:09:33.690Z,18.8
2022-09-13T17:15:11.877Z,18.4
2022-09-13T17:20:49.846Z,18.1
2022-09-13T17:26:30.920Z,17.7
2022-09-13T17:32:14.777Z,17.3
2022-09-13T17:37:52.383Z,16.8
2022-09-13T17:43:35.124Z,16.4
2022-09-13T17:49:14.003Z,15.9
2022-09-13T17:54:52.999Z,15.6
2022-09-13T18:00:35.397Z,15.3
2022-09-13T18:06:03.610Z,15.1
2022-09-13T18:12:24.260Z,14.9
2022-09-13T18:18:06.547Z,14.8
2022-09-13T18:24:06.890Z,14.6
2022-09-13T18:29:48.206Z,14.5
2022-09-13T18:35:29.578Z,14.4
2022-09-13T18:40:52.891Z,14.2
2022-09-13T18:46:17.266Z,14
2022-09-13T18:51:57.330Z,13.9
2022-09-13T18:57:41.651Z,13.8
2022-09-13T19:03:27.493Z,13.6
2022-09-13T19:08:50.754Z,13.3
2022-09-13T19:14:41.550Z,13.1
2022-09-13T19:20:20.227Z,12.9
2022-09-13T19:26:20.542Z,12.7
2022-09-13T19:31:59.947Z,12.4
2022-09-13T19:37:45.255Z,12.2
2022-09-13T19:43:12.764Z,12
2022-09-13T19:50:11.238Z,11.8
2022-09-13T19:55:58.322Z,11.6
2022-09-13T20:01:24.524Z,11.6
2022-09-13T20:06:46.988Z,11.5
2022-09-13T20:12:14.065Z,11.4
2022-09-13T20:17:52.635Z,11.3
2022-09-13T20:23:55.436Z,11.2
2022-09-13T20:29:19.087Z,11.1
2022-09-13T20:34:43.035Z,11.1
2022-09-13T20:40:23.664Z,11.1
2022-09-13T20:46:02.877Z,11
2022-09-13T20:51:25.096Z,10.9
2022-09-13T20:57:03.276Z,10.8
2022-09-13T21:02:26.682Z,10.6
2022-09-13T21:08:05.640Z,10.4
2022-09-13T21:13:28.807Z,10.3
2022-09-13T21:19:06.546Z,10.1
2022-09-13T21:24:44.511Z,9.9
2022-09-13T21:30:07.831Z,9.7
2022-09-13T21:35:49.999Z,9.6
2022-09-13T21:41:27.841Z,9.4
2022-09-13T21:46:51.350Z,9.3
2022-09-13T21:52:29.332Z,9.2
2022-09-13T21:57:58.562Z,9.1
2022-09-13T22:03:24.113Z,9.1
2022-09-13T22:09:12.257Z,8.9
2022-09-13T22:14:38.737Z,8.8
2022-09-13T22:20:08.277Z,8.8
2022-09-13T22:25:52.446Z,8.6
2022-09-13T22:31:32.171Z,8.6
2022-09-13T22:37:03.915Z,8.4
2022-09-13T22:42:41.070Z,8.4
2022-09-13T22:48:18.188Z,8.3
2022-09-13T22:53:56.675Z,8.3
2022-09-13T22:59:33.493Z,8.2
2022-09-13T23:05:12.120Z,8.1
2022-09-13T23:10:50.802Z,8.1
2022-09-13T23:16:28.697Z,8
2022-09-13T23:22:06.129Z,7.9
2022-09-13T23:27:44.274Z,7.8
2022-09-13T23:33:05.963Z,7.8
2022-09-13T23:38:43.215Z,7.8
2022-09-13T23:43:50.954Z,7.8
2022-09-13T23:49:27.687Z,7.8
2022-09-13T23:54:50.122Z,7.9
